Time;durP1;ratioP1;P1;durP2;ratioP2;P2;SDS_P1;SDS_P2;PMS_P1;PMS_P2;Temp;Humidity;BMP_temperature;BMP_pressure;BME280_temperature;BME280_humidity;BME280_pressure;Samples;Min_cycle;Max_cycle;Signal;HPM_P1;HPM_P2
2022/05/16 00:01:49;;;;;;;8.35;4.07;;;;;;;18.98;45.11;101244.44;5064668;28;20036;-91
2022/05/16 00:04:15;;;;;;;5.93;3.80;;;;;;;18.90;45.28;101222.72;5076774;28;20093;-89
2022/05/16 00:06:40;;;;;;;9.25;4.35;;;;;;;18.82;45.15;101234.78;5080909;28;20024;-90
2022/05/16 00:09:07;;;;;;;9.70;4.10;;;;;;;18.74;45.79;101233.59;5084600;28;20046;-90
2022/05/16 00:11:33;;;;;;;7.38;4.07;;;;;;;18.60;46.69;101226.47;5080596;28;20028;-90
2022/05/16 00:13:58;;;;;;;9.40;3.95;;;;;;;18.73;45.40;101227.38;5063168;28;20505;-91
2022/05/16 00:16:24;;;;;;;10.73;4.18;;;;;;;18.81;45.41;101229.56;5079439;28;20021;-90
2022/05/16 00:18:51;;;;;;;9.88;4.07;;;;;;;18.77;45.45;101228.91;5080239;28;20024;-90
2022/05/16 00:21:16;;;;;;;8.63;4.35;;;;;;;18.73;45.77;101227.38;5066864;28;20024;-90
2022/05/16 00:23:41;;;;;;;9.75;4.10;;;;;;;18.76;45.69;101218.28;5061675;28;20181;-90
2022/05/16 00:26:07;;;;;;;8.88;3.72;;;;;;;18.73;46.44;101227.38;5065101;28;20032;-91
2022/05/16 00:28:32;;;;;;;8.10;3.95;;;;;;;18.63;46.12;101220.06;5066456;28;20046;-90
2022/05/16 00:30:58;;;;;;;12.00;4.40;;;;;;;18.53;46.28;101222.50;5065410;28;20020;-90
2022/05/16 00:33:24;;;;;;;10.98;4.82;;;;;;;18.54;45.99;101221.53;5066843;28;20050;-90
2022/05/16 00:35:49;;;;;;;9.48;4.35;;;;;;;18.44;46.82;101202.56;5078025;28;20478;-91
2022/05/16 00:38:14;;;;;;;10.27;4.30;;;;;;;18.48;47.29;101212.09;5070831;28;20028;-90
2022/05/16 00:40:40;;;;;;;7.55;3.72;;;;;;;18.42;46.86;101207.16;5077428;28;20379;-90
2022/05/16 00:43:12;;;;;;;9.88;4.18;;;;;;;18.48;46.38;101212.09;5064274;28;20497;-90
2022/05/16 00:45:38;;;;;;;7.75;3.70;;;;;;;18.42;46.69;101211.63;5075745;28;20056;-90
2022/05/16 00:48:05;;;;;;;10.70;4.57;;;;;;;18.31;47.16;101209.69;5081256;28;20036;-90
2022/05/16 00:50:33;;;;;;;8.77;4.43;;;;;;;18.27;47.60;101214.38;5082190;28;20558;-90
2022/05/16 00:52:59;;;;;;;8.25;4.45;;;;;;;18.23;47.70;101207.53;5065950;28;20065;-89
2022/05/16 00:55:29;;;;;;;10.65;4.10;;;;;;;18.18;47.15;101206.09;5061625;28;20407;-90
2022/05/16 00:57:57;;;;;;;9.18;4.22;;;;;;;18.15;47.71;101209.84;5080016;28;20114;-89
2022/05/16 01:00:32;;;;;;;10.23;4.15;;;;;;;18.17;47.90;101212.41;5059553;28;20036;-89
2022/05/16 01:05:51;;;;;;;9.48;4.07;;;;;;;18.10;48.36;101209.31;5078370;28;20086;-90
2022/05/16 01:08:23;;;;;;;9.07;4.80;;;;;;;18.10;47.17;101198.59;5079704;28;20499;-90
2022/05/16 01:10:54;;;;;;;8.25;3.60;;;;;;;18.17;47.29;101196.38;5077232;28;20046;-90
2022/05/16 01:13:24;;;;;;;7.18;4.32;;;;;;;18.14;47.41;101189.41;5079058;28;20135;-91
2022/05/16 01:15:50;;;;;;;12.18;4.82;;;;;;;18.18;47.83;101190.03;5079905;28;20024;-90
2022/05/16 01:18:19;;;;;;;9.10;4.50;;;;;;;18.16;47.65;101189.31;5080567;28;20032;-90
2022/05/16 01:21:18;;;;;;;6.97;3.80;;;;;;;18.25;46.97;101205.59;5062663;28;20039;-89
2022/05/16 01:23:51;;;;;;;13.88;4.70;;;;;;;18.12;47.36;101198.50;5077219;28;20031;-90
2022/05/16 01:26:21;;;;;;;12.68;4.70;;;;;;;17.97;47.66;101193.19;5080565;28;20042;-90
2022/05/16 01:28:47;;;;;;;12.13;4.45;;;;;;;17.95;48.78;101207.59;5075237;28;20042;-90
2022/05/16 01:31:12;;;;;;;10.45;4.75;;;;;;;17.86;49.38;101206.41;5062552;28;20474;-89
2022/05/16 01:33:38;;;;;;;9.30;4.60;;;;;;;17.88;48.66;101207.16;5059392;28;20030;-89
2022/05/16 01:36:05;;;;;;;10.50;4.22;;;;;;;17.88;47.56;101203.63;5080199;28;21314;-91
2022/05/16 01:38:31;;;;;;;8.18;4.68;;;;;;;17.77;49.05;101194.50;5082088;28;20491;-90
2022/05/16 01:41:11;;;;;;;7.32;4.50;;;;;;;17.82;48.44;101204.91;5077795;28;20040;-90
2022/05/16 01:43:45;;;;;;;9.75;4.35;;;;;;;17.65;49.43;101197.06;5079084;28;20150;-90
2022/05/16 01:46:13;;;;;;;5.05;4.07;;;;;;;17.62;48.93;101192.75;5042522;28;20052;-90
2022/05/16 01:48:39;;;;;;;11.23;4.30;;;;;;;17.70;48.93;101181.56;5040032;28;20056;-89
2022/05/16 01:51:08;;;;;;;8.32;4.20;;;;;;;17.68;48.89;101197.72;5041722;28;20052;-90
2022/05/16 01:53:33;;;;;;;9.48;4.57;;;;;;;17.62;49.63;101191.91;5043181;28;20029;-91
2022/05/16 01:55:59;;;;;;;7.50;4.60;;;;;;;17.63;49.24;101183.78;5044759;28;20036;-90
2022/05/16 01:58:25;;;;;;;11.65;4.75;;;;;;;17.65;49.62;101176.53;5041983;28;20376;-90
2022/05/16 02:00:51;;;;;;;10.13;4.65;;;;;;;17.65;49.56;101179.19;5042486;28;20100;-90
2022/05/16 02:03:17;;;;;;;11.80;5.28;;;;;;;17.56;50.47;101169.09;5041911;28;20151;-89
2022/05/16 02:05:44;;;;;;;10.38;5.25;;;;;;;17.38;50.32;101163.09;5039738;28;20411;-90
2022/05/16 02:08:10;;;;;;;10.57;4.90;;;;;;;17.34;50.79;101175.78;5039026;28;20106;-90
2022/05/16 02:10:36;;;;;;;10.30;5.32;;;;;;;17.33;51.08;101168.72;5042415;28;20031;-90
2022/05/16 02:13:03;;;;;;;12.10;4.72;;;;;;;17.32;50.61;101161.69;5042730;28;20396;-90
2022/05/16 02:15:31;;;;;;;13.38;5.13;;;;;;;17.32;51.04;101167.03;5042085;28;20033;-91
2022/05/16 02:17:57;;;;;;;8.43;5.03;;;;;;;17.25;51.10;101152.34;5041405;28;20028;-91
2022/05/16 02:20:22;;;;;;;13.02;5.03;;;;;;;17.23;51.58;101156.91;5042847;28;20044;-89
2022/05/16 02:25:36;;;;;;;8.10;4.82;;;;;;;17.23;51.51;101161.41;5042624;28;20047;-90
2022/05/16 02:28:02;;;;;;;9.93;4.85;;;;;;;17.26;51.25;101164.75;5039738;28;20115;-90
2022/05/16 02:30:28;;;;;;;9.02;5.13;;;;;;;17.16;51.66;101160.94;5041562;28;20495;-90
2022/05/16 02:32:53;;;;;;;7.32;5.03;;;;;;;17.02;52.01;101148.44;5044277;28;20021;-90
2022/05/16 02:35:19;;;;;;;11.95;5.07;;;;;;;17.04;51.97;101143.84;5042509;28;20028;-90
2022/05/16 02:37:45;;;;;;;7.72;4.72;;;;;;;17.10;50.96;101145.28;5041053;28;20476;-90
2022/05/16 02:40:11;;;;;;;10.45;4.93;;;;;;;17.16;51.23;101157.38;5043021;28;20154;-90
2022/05/16 02:42:36;;;;;;;10.43;5.15;;;;;;;16.99;52.42;101140.59;5042131;28;20039;-89
2022/05/16 02:45:04;;;;;;;8.55;4.85;;;;;;;17.05;52.64;101147.38;5059011;28;20669;-89
2022/05/16 02:47:29;;;;;;;8.68;4.90;;;;;;;16.97;51.87;101130.97;5076177;28;20040;-90
2022/05/16 02:49:54;;;;;;;9.05;4.97;;;;;;;16.99;52.43;101135.28;5084785;28;20405;-90
2022/05/16 02:52:20;;;;;;;7.20;4.80;;;;;;;16.98;52.17;101138.91;5073069;28;20084;-90
2022/05/16 02:54:45;;;;;;;11.98;5.70;;;;;;;16.93;52.87;101130.31;5062111;28;20497;-90
2022/05/16 02:57:11;;;;;;;8.05;4.70;;;;;;;16.96;52.27;101129.25;5066268;28;20042;-90
2022/05/16 02:59:37;;;;;;;11.23;5.50;;;;;;;16.87;53.29;101127.16;5060740;28;20032;-90
2022/05/16 03:02:05;;;;;;;11.15;4.97;;;;;;;16.91;52.08;101123.34;5078810;28;20023;-90
2022/05/16 03:04:31;;;;;;;9.38;4.88;;;;;;;16.92;52.03;101120.56;5077744;28;20032;-90
2022/05/16 03:06:57;;;;;;;13.23;6.00;;;;;;;16.72;52.83;101111.13;5076737;28;20027;-90
2022/05/16 03:09:24;;;;;;;12.02;5.20;;;;;;;16.73;53.18;101110.16;5079511;28;20042;-90
2022/05/16 03:11:49;;;;;;;9.32;4.85;;;;;;;16.69;53.44;101110.41;5055755;28;20077;-91
2022/05/16 03:14:15;;;;;;;9.88;5.18;;;;;;;16.63;53.32;101102.78;5061177;28;20024;-90
2022/05/16 03:16:40;;;;;;;10.45;5.20;;;;;;;16.62;53.49;101114.44;5059791;28;20024;-89
2022/05/16 03:19:05;;;;;;;9.30;5.05;;;;;;;16.56;54.93;101103.16;5073383;28;20036;-90
2022/05/16 03:21:31;;;;;;;10.32;5.50;;;;;;;16.44;54.12;101089.72;5063023;28;20093;-89
2022/05/16 03:23:57;;;;;;;10.40;5.13;;;;;;;16.45;53.80;101094.09;5081464;28;20455;-90
2022/05/16 03:26:23;;;;;;;10.45;5.07;;;;;;;16.48;54.76;101112.59;5080725;28;20061;-90
2022/05/16 03:28:49;;;;;;;12.05;5.30;;;;;;;16.41;56.04;101113.91;5074896;28;20032;-90
2022/05/16 03:31:14;;;;;;;12.95;5.32;;;;;;;16.41;54.61;101111.22;5062577;28;20027;-90
2022/05/16 03:33:40;;;;;;;8.75;4.82;;;;;;;16.35;55.61;101103.59;5075706;28;20036;-90
2022/05/16 03:36:06;;;;;;;8.45;5.13;;;;;;;16.46;55.42;101120.69;5078591;28;20024;-89
2022/05/16 03:41:17;;;;;;;10.27;5.32;;;;;;;16.58;54.37;101114.59;5081791;28;20032;-90
2022/05/16 03:43:43;;;;;;;10.38;5.38;;;;;;;16.61;54.72;101110.91;5080115;28;20082;-90
2022/05/16 03:46:09;;;;;;;8.57;5.25;;;;;;;16.54;55.29;101106.88;5079290;28;20052;-90
2022/05/16 03:48:35;;;;;;;9.48;5.43;;;;;;;16.52;54.51;101111.47;5079428;28;20027;-89
2022/05/16 03:51:02;;;;;;;7.07;4.93;;;;;;;16.52;55.73;101120.31;5071362;28;20032;-90
2022/05/16 03:53:28;;;;;;;7.72;5.30;;;;;;;16.54;54.75;101114.88;5067636;28;20031;-90
2022/05/16 03:55:54;;;;;;;7.30;4.78;;;;;;;16.53;55.45;101111.34;5064273;28;20024;-90
2022/05/16 03:58:19;;;;;;;12.77;5.40;;;;;;;16.46;55.31;101112.69;5065615;28;20128;-89
2022/05/16 04:00:45;;;;;;;6.03;5.18;;;;;;;16.39;56.47;101108.66;5065948;28;20035;-90
2022/05/16 04:03:10;;;;;;;9.70;5.50;;;;;;;16.44;56.46;101105.72;5082394;28;20373;-89
2022/05/16 04:05:36;;;;;;;9.77;5.68;;;;;;;16.50;56.47;101116.88;5080054;28;20062;-90
2022/05/16 04:08:03;;;;;;;8.38;5.50;;;;;;;16.50;55.64;101111.53;5081368;28;20063;-90
2022/05/16 04:10:28;;;;;;;8.50;5.60;;;;;;;16.49;55.07;101107.16;5078783;28;20473;-89
2022/05/16 04:12:54;;;;;;;11.25;5.18;;;;;;;16.44;55.09;101087.91;5082159;28;20036;-90
2022/05/16 04:15:21;;;;;;;10.77;5.53;;;;;;;16.50;55.59;101102.66;5066092;28;20124;-89
2022/05/16 04:17:47;;;;;;;7.78;5.15;;;;;;;16.56;56.09;101107.66;5063853;28;20032;-90
2022/05/16 04:20:13;;;;;;;11.73;5.88;;;;;;;16.59;54.62;101118.97;5083962;28;20036;-90
2022/05/16 04:22:39;;;;;;;8.25;5.55;;;;;;;16.58;56.71;101114.59;5068584;28;20028;-90
2022/05/16 04:25:06;;;;;;;12.80;5.53;;;;;;;16.59;55.72;101113.63;5080646;28;20474;-90
2022/05/16 04:27:31;;;;;;;8.80;5.57;;;;;;;16.64;56.09;101117.84;5064551;28;20040;-89
2022/05/16 04:29:56;;;;;;;9.05;5.78;;;;;;;16.63;56.48;101121.47;5082367;28;20035;-89
2022/05/16 04:32:22;;;;;;;10.63;5.97;;;;;;;16.72;54.73;101124.47;5063013;28;21331;-90
2022/05/16 04:34:47;;;;;;;8.63;6.35;;;;;;;16.75;54.74;101118.09;5066206;28;20027;-90
2022/05/16 04:37:13;;;;;;;9.55;6.40;;;;;;;16.83;54.40;101122.00;5081333;28;20024;-90
2022/05/16 04:39:38;;;;;;;9.05;6.05;;;;;;;16.79;56.25;101120.47;5082504;28;20471;-90
2022/05/16 04:44:48;;;;;;;10.90;6.10;;;;;;;16.94;55.29;101125.81;5080908;28;20046;-92
2022/05/16 04:47:13;;;;;;;9.25;6.10;;;;;;;16.99;54.90;101121.91;5080659;28;20024;-91
2022/05/16 04:49:40;;;;;;;13.05;6.15;;;;;;;17.03;54.64;101122.59;5076002;28;20426;-91
2022/05/16 04:52:06;;;;;;;9.43;6.55;;;;;;;17.02;55.00;101116.38;5085728;28;20979;-92
2022/05/16 04:54:31;;;;;;;11.25;5.90;;;;;;;17.06;55.00;101120.56;5064650;28;20832;-91
2022/05/16 04:56:57;;;;;;;15.77;6.72;;;;;;;17.21;54.53;101134.78;5080332;28;20027;-91
2022/05/16 04:59:22;;;;;;;10.98;6.65;;;;;;;17.30;54.37;101123.50;5080342;28;20051;-90
2022/05/16 05:01:48;;;;;;;9.50;6.25;;;;;;;17.48;53.94;101136.63;5063387;28;20112;-93
2022/05/16 05:04:14;;;;;;;10.80;6.43;;;;;;;17.55;53.48;101135.28;5066192;28;20520;-90
2022/05/16 05:06:40;;;;;;;11.55;6.00;;;;;;;17.68;53.62;101128.19;5063589;28;20051;-92
2022/05/16 05:09:06;;;;;;;10.20;5.88;;;;;;;17.78;53.29;101137.38;5066893;28;20024;-92
2022/05/16 05:14:34;;;;;;;9.25;6.15;;;;;;;17.92;53.03;101131.09;5081546;28;20097;-91
2022/05/16 05:17:01;;;;;;;9.68;6.10;;;;;;;18.03;52.92;101131.25;5069338;28;20028;-92
2022/05/16 05:19:27;;;;;;;9.85;6.45;;;;;;;18.20;52.92;101126.59;5059928;28;20036;-92
2022/05/16 05:21:52;;;;;;;9.18;6.72;;;;;;;18.26;52.27;101123.50;5064794;28;20037;-92
2022/05/16 05:24:17;;;;;;;11.10;6.60;;;;;;;18.33;52.86;101124.81;5078238;28;20328;-92
2022/05/16 05:26:43;;;;;;;10.15;6.82;;;;;;;18.37;52.25;101128.94;5059161;28;20501;-91
2022/05/16 05:29:11;;;;;;;12.55;6.72;;;;;;;18.47;52.30;101139.94;5061139;28;20452;-92
2022/05/16 05:31:37;;;;;;;15.30;7.07;;;;;;;18.56;52.21;101140.16;5081122;28;20482;-91
2022/05/16 05:34:03;;;;;;;12.07;6.63;;;;;;;18.68;51.80;101142.94;5063563;28;20128;-91
2022/05/16 05:36:29;;;;;;;11.82;6.18;;;;;;;18.78;52.80;101131.50;5064380;28;20149;-91
2022/05/16 05:38:55;;;;;;;15.40;6.18;;;;;;;18.88;51.40;101126.34;5061795;28;20024;-91
2022/05/16 05:41:22;;;;;;;10.05;6.35;;;;;;;18.97;52.42;101133.72;5078900;28;20032;-90
2022/05/16 05:43:48;;;;;;;14.55;6.28;;;;;;;19.04;51.88;101118.94;5078049;28;20035;-90
2022/05/16 05:46:13;;;;;;;11.65;6.38;;;;;;;19.13;52.84;101125.47;5080599;28;21098;-90
2022/05/16 05:48:38;;;;;;;10.35;6.07;;;;;;;19.04;52.82;101134.16;5081001;28;20118;-90
2022/05/16 05:51:04;;;;;;;10.73;5.68;;;;;;;19.18;51.16;101136.72;5076517;28;20032;-91
2022/05/16 05:53:29;;;;;;;9.10;5.93;;;;;;;19.21;50.99;101141.88;5065011;28;20487;-90
2022/05/16 05:55:55;;;;;;;8.60;5.75;;;;;;;19.16;51.87;101152.03;5080365;28;20122;-90
2022/05/16 05:58:20;;;;;;;10.50;5.70;;;;;;;19.16;51.58;101164.59;5081962;28;20020;-91
2022/05/16 06:00:46;;;;;;;10.10;5.60;;;;;;;19.11;51.31;101154.19;5077868;28;20063;-90
2022/05/16 06:03:14;;;;;;;10.27;5.65;;;;;;;19.09;52.73;101148.94;5076940;28;20446;-91
2022/05/16 06:05:40;;;;;;;11.48;5.60;;;;;;;19.18;51.95;101157.31;5061762;28;20036;-91
2022/05/16 06:08:05;;;;;;;10.82;5.72;;;;;;;19.15;52.28;101153.00;5076379;28;20548;-92
2022/05/16 06:10:31;;;;;;;6.95;5.88;;;;;;;19.18;52.71;101160.84;5079067;28;20399;-92
2022/05/16 06:12:56;;;;;;;7.60;5.43;;;;;;;19.33;51.69;101166.94;5076558;28;20486;-91
2022/05/16 06:15:22;;;;;;;9.73;5.75;;;;;;;19.39;52.75;101171.84;5061187;28;20027;-91
2022/05/16 06:17:48;;;;;;;9.02;5.53;;;;;;;19.41;52.26;101167.25;5075886;28;20063;-90
2022/05/16 06:20:14;;;;;;;7.90;5.93;;;;;;;19.49;51.32;101164.88;5059030;28;20042;-91
2022/05/16 06:22:40;;;;;;;9.82;5.68;;;;;;;19.54;51.36;101169.91;5079041;28;20031;-90
2022/05/16 06:27:54;;;;;;;13.15;6.32;;;;;;;19.59;51.19;101176.66;5078656;28;20431;-90
2022/05/16 06:30:21;;;;;;;12.48;6.97;;;;;;;19.69;50.83;101182.22;5075621;28;20021;-90
2022/05/16 06:32:48;;;;;;;9.13;6.82;;;;;;;19.70;50.75;101175.88;5079815;28;21284;-90
2022/05/16 06:35:14;;;;;;;11.55;6.18;;;;;;;19.79;50.67;101179.72;5083033;28;20028;-90
2022/05/16 06:37:40;;;;;;;10.15;6.72;;;;;;;19.85;51.43;101173.91;5077980;28;20024;-89
2022/05/16 06:40:06;;;;;;;10.50;6.15;;;;;;;19.88;52.51;101177.22;5079410;28;20043;-89
2022/05/16 06:42:31;;;;;;;12.32;6.53;;;;;;;20.01;51.35;101192.44;5079682;28;20515;-88
2022/05/16 06:44:57;;;;;;;9.57;6.07;;;;;;;20.11;51.06;101194.31;5073232;28;20049;-89
2022/05/16 06:47:23;;;;;;;10.30;6.22;;;;;;;20.11;51.59;101194.31;5080944;28;20084;-89
2022/05/16 06:49:49;;;;;;;13.98;6.50;;;;;;;20.21;51.52;101202.53;5060163;28;20527;-89
2022/05/16 06:52:16;;;;;;;10.77;5.85;;;;;;;20.40;51.59;101188.56;5075476;28;20039;-89
2022/05/16 06:54:42;;;;;;;14.68;5.95;;;;;;;20.63;50.95;101192.22;5056301;28;20227;-90
2022/05/16 06:57:07;;;;;;;11.10;5.85;;;;;;;20.79;51.29;101195.41;5077103;28;20020;-89
2022/05/16 06:59:33;;;;;;;12.80;5.47;;;;;;;21.04;50.22;101198.91;5076536;28;20031;-89
2022/05/16 07:01:58;;;;;;;7.47;5.50;;;;;;;21.31;48.16;101198.56;5074696;28;20137;-89
2022/05/16 07:04:24;;;;;;;8.85;5.13;;;;;;;21.48;48.83;101203.47;5060455;28;20028;-89
2022/05/16 07:06:49;;;;;;;9.43;4.78;;;;;;;21.61;47.48;101204.19;5078366;28;20028;-88
2022/05/16 07:09:14;;;;;;;11.43;4.90;;;;;;;21.55;47.63;101209.22;5072089;28;20027;-89
2022/05/16 07:11:40;;;;;;;16.25;4.72;;;;;;;21.56;48.34;101211.78;5077667;28;20024;-89
2022/05/16 07:14:05;;;;;;;10.32;4.57;;;;;;;21.64;48.50;101206.63;5074084;28;20166;-88
2022/05/16 07:16:30;;;;;;;9.70;4.38;;;;;;;21.77;49.05;101213.69;5065623;28;20028;-88
2022/05/16 07:18:55;;;;;;;7.82;3.75;;;;;;;21.91;48.66;101210.72;5060995;28;20025;-88
2022/05/16 07:21:21;;;;;;;8.02;4.10;;;;;;;22.04;50.40;101219.53;5068544;28;20030;-88
2022/05/16 07:23:47;;;;;;;10.35;4.18;;;;;;;22.18;47.52;101220.25;5057459;28;20032;-88
2022/05/16 07:28:56;;;;;;;6.55;3.40;;;;;;;22.39;48.53;101216.63;5075956;28;20062;-88
2022/05/16 07:31:21;;;;;;;7.57;3.58;;;;;;;22.39;46.50;101227.41;5060452;28;20462;-88
2022/05/16 07:33:47;;;;;;;7.15;4.20;;;;;;;22.48;46.83;101227.63;5060116;28;20027;-88
2022/05/16 07:36:12;;;;;;;7.07;3.45;;;;;;;22.47;48.87;101229.44;5064422;28;20028;-89
2022/05/16 07:38:37;;;;;;;7.30;3.75;;;;;;;22.56;47.72;101223.28;5063897;28;20032;-88
2022/05/16 07:41:03;;;;;;;7.72;3.50;;;;;;;22.69;47.65;101215.00;5073821;28;20099;-88
2022/05/16 07:43:29;;;;;;;7.28;3.95;;;;;;;22.86;47.47;101213.56;5062845;28;20028;-89
2022/05/16 07:45:54;;;;;;;5.88;3.45;;;;;;;22.87;47.02;101218.81;5082846;28;20556;-89
2022/05/16 07:48:21;;;;;;;9.57;3.40;;;;;;;22.78;49.56;101218.75;5059390;28;20051;-89
2022/05/16 07:50:48;;;;;;;7.13;3.40;;;;;;;22.90;48.94;101223.16;5077850;28;20039;-89
2022/05/16 07:53:14;;;;;;;10.63;3.92;;;;;;;22.86;47.75;101232.44;5077093;28;20032;-89
2022/05/16 07:55:43;;;;;;;8.63;3.15;;;;;;;22.91;47.85;101224.84;5078459;28;20111;-89
2022/05/16 07:58:09;;;;;;;7.13;3.25;;;;;;;22.97;47.81;101224.31;5077145;28;20028;-89
2022/05/16 08:00:34;;;;;;;8.80;3.00;;;;;;;23.12;46.32;101233.75;5061134;28;20032;-89
2022/05/16 08:03:01;;;;;;;9.35;2.90;;;;;;;23.29;45.30;101236.84;5079903;28;20055;-88
2022/05/16 08:05:27;;;;;;;6.45;3.20;;;;;;;23.36;46.37;101240.69;5061596;28;20048;-89
2022/05/16 08:10:39;;;;;;;14.57;3.13;;;;;;;23.78;45.20;101241.50;5077055;28;20456;-88
2022/05/16 08:13:07;;;;;;;7.03;2.72;;;;;;;24.17;45.29;101234.31;5077501;28;20028;-89
2022/05/16 08:15:36;;;;;;;8.30;2.50;;;;;;;24.30;43.08;101239.47;5076933;28;20036;-89
2022/05/16 08:18:02;;;;;;;8.10;2.78;;;;;;;24.28;42.87;101248.69;5078864;28;20024;-90
2022/05/16 08:20:29;;;;;;;7.93;2.67;;;;;;;24.21;44.64;101236.75;5072322;28;20485;-89
2022/05/16 08:22:54;;;;;;;9.18;2.70;;;;;;;24.60;43.23;101235.78;5053385;28;20031;-89
2022/05/16 08:25:20;;;;;;;5.40;2.65;;;;;;;24.98;41.74;101241.31;5062031;28;20980;-90
2022/05/16 08:27:45;;;;;;;9.57;3.00;;;;;;;25.09;42.77;101249.31;5070490;28;20024;-89
2022/05/16 08:30:12;;;;;;;12.68;3.25;;;;;;;25.34;41.65;101248.66;5077151;28;20096;-89
2022/05/16 08:32:38;;;;;;;9.98;3.05;;;;;;;25.35;41.11;101247.63;5075297;28;20414;-89
2022/05/16 08:35:07;;;;;;;6.35;3.03;;;;;;;25.37;42.07;101253.78;5061995;28;20029;-89
2022/05/16 08:40:18;;;;;;;20.63;3.50;;;;;;;25.68;40.78;101257.06;5078855;28;20047;-90
2022/05/16 08:42:54;;;;;;;7.70;2.85;;;;;;;26.68;39.67;101256.19;5081153;28;20031;-88
2022/05/16 08:45:34;;;;;;;9.07;3.10;;;;;;;28.21;37.82;101245.53;5065805;28;20101;-88
2022/05/16 08:48:21;;;;;;;7.07;2.95;;;;;;;29.14;35.95;101244.38;5063171;28;20499;-87
2022/05/16 08:51:04;;;;;;;5.30;2.78;;;;;;;29.95;33.70;101251.47;5060280;28;20028;-88
2022/05/16 08:53:41;;;;;;;7.13;2.72;;;;;;;29.90;33.08;101254.72;5082111;28;20020;-88
2022/05/16 08:56:10;;;;;;;6.63;2.70;;;;;;;30.36;32.22;101245.81;5083137;28;20080;-87
2022/05/16 08:58:41;;;;;;;8.48;2.42;;;;;;;30.82;32.29;101248.50;5080342;28;20490;-87
2022/05/16 09:01:10;;;;;;;11.13;2.90;;;;;;;31.17;31.19;101241.53;5072180;28;20130;-88
2022/05/16 09:03:43;;;;;;;7.72;2.50;;;;;;;31.13;30.79;101243.78;5081775;28;20399;-88
2022/05/16 09:06:16;;;;;;;7.65;3.25;;;;;;;31.42;30.56;101237.50;5077523;28;20033;-88
2022/05/16 09:08:53;;;;;;;10.52;2.42;;;;;;;31.56;30.68;101249.47;5081167;28;20028;-89
2022/05/16 09:11:40;;;;;;;6.63;2.42;;;;;;;31.43;30.74;101249.28;5082263;28;20028;-88
2022/05/16 09:14:11;;;;;;;7.20;2.65;;;;;;;31.83;29.36;101241.66;5079135;28;20030;-88
2022/05/16 09:16:44;;;;;;;7.38;3.42;;;;;;;32.06;28.20;101246.97;5078235;28;20103;-88
2022/05/16 09:19:49;;;;;;;8.00;2.90;;;;;;;31.73;30.83;101247.41;5084445;28;20035;-89
2022/05/16 09:22:38;;;;;;;4.20;2.70;;;;;;;31.55;30.58;101246.94;5066538;28;20568;-89
2022/05/16 09:25:19;;;;;;;4.82;2.42;;;;;;;31.48;31.16;101247.72;5078822;28;20119;-89
2022/05/16 09:30:39;;;;;;;7.15;2.17;;;;;;;30.48;32.10;101242.44;5079323;28;20046;-88
2022/05/16 09:33:13;;;;;;;3.60;2.50;;;;;;;30.69;30.76;101249.97;5061008;28;20071;-89
2022/05/16 09:35:49;;;;;;;10.65;2.78;;;;;;;30.26;32.38;101246.00;5077358;28;20528;-89
2022/05/16 09:38:15;;;;;;;5.63;2.65;;;;;;;30.01;32.80;101247.16;5065078;28;20541;-89
2022/05/16 09:40:55;;;;;;;4.70;2.45;;;;;;;30.34;32.35;101247.84;5080148;28;20024;-89
2022/05/16 09:43:23;;;;;;;6.03;2.60;;;;;;;30.31;32.00;101246.34;5063013;28;20130;-89
2022/05/16 09:45:54;;;;;;;6.75;2.75;;;;;;;30.61;33.11;101246.47;5083306;28;20640;-89
2022/05/16 09:48:22;;;;;;;5.68;2.63;;;;;;;30.86;30.80;101256.16;5083771;28;20452;-89
2022/05/16 09:50:59;;;;;;;7.65;3.03;;;;;;;30.57;32.59;101256.88;5065260;28;20441;-90
2022/05/16 09:53:37;;;;;;;5.80;2.70;;;;;;;30.52;32.41;101267.50;5060207;28;20035;-90
2022/05/16 09:56:16;;;;;;;5.00;2.60;;;;;;;30.63;32.65;101274.41;5077529;28;20036;-90
2022/05/16 09:58:52;;;;;;;7.75;2.65;;;;;;;30.70;31.97;101278.13;5082152;28;20118;-90
2022/05/16 10:01:39;;;;;;;5.28;2.75;;;;;;;30.52;32.13;101283.03;5060913;28;20049;-90
2022/05/16 10:04:16;;;;;;;6.80;2.72;;;;;;;30.84;31.44;101290.16;5077499;28;20024;-90
2022/05/16 10:06:55;;;;;;;7.93;3.08;;;;;;;30.66;31.52;101298.63;5076595;28;20027;-90
2022/05/16 10:09:30;;;;;;;5.70;3.10;;;;;;;30.23;32.51;101301.78;5073175;28;20032;-89
2022/05/16 10:11:57;;;;;;;7.22;2.83;;;;;;;30.14;32.72;101302.88;5081174;28;20020;-89
2022/05/16 10:14:22;;;;;;;9.48;3.00;;;;;;;29.98;33.01;101294.72;5064159;28;20106;-91
2022/05/16 10:16:50;;;;;;;6.35;2.95;;;;;;;30.01;32.72;101293.53;5075442;28;20027;-90
2022/05/16 10:19:20;;;;;;;5.75;2.85;;;;;;;30.13;33.27;101300.28;5066132;28;20035;-90
2022/05/16 10:21:55;;;;;;;8.73;3.45;;;;;;;30.41;33.52;101311.59;5079785;28;20036;-89
2022/05/16 10:24:24;;;;;;;7.97;3.58;;;;;;;29.66;33.46;101302.03;5081207;28;20531;-90
2022/05/16 10:26:54;;;;;;;7.82;3.25;;;;;;;28.70;34.83;101315.50;5070738;28;20028;-90
2022/05/16 10:29:24;;;;;;;8.98;3.55;;;;;;;28.21;35.89;101312.63;5079330;28;20478;-90
2022/05/16 10:34:49;;;;;;;8.68;4.18;;;;;;;27.31;40.69;101339.28;5076160;28;20026;-90
2022/05/16 10:37:16;;;;;;;11.15;4.32;;;;;;;26.96;42.31;101365.47;5076798;28;20027;-91
2022/05/16 10:39:45;;;;;;;6.80;3.45;;;;;;;26.57;45.52;101373.00;5062018;28;20024;-90
2022/05/16 10:42:21;;;;;;;13.00;4.70;;;;;;;26.02;47.60;101383.84;5064694;28;20039;-90
2022/05/16 10:44:52;;;;;;;15.60;4.90;;;;;;;25.49;50.59;101389.81;5058953;28;20522;-89
2022/05/16 10:47:25;;;;;;;14.25;5.05;;;;;;;25.13;52.02;101388.69;5069757;28;20486;-88
2022/05/16 10:50:11;;;;;;;14.40;5.28;;;;;;;25.22;51.29;101387.84;5075167;28;20023;-90
2022/05/16 10:52:44;;;;;;;8.98;4.43;;;;;;;24.85;55.09;101398.47;5078743;28;20036;-89
2022/05/16 10:55:10;;;;;;;8.25;4.82;;;;;;;25.04;56.37;101386.81;5072526;28;20050;-88
2022/05/16 10:57:38;;;;;;;9.23;4.78;;;;;;;25.51;51.93;101401.38;5071792;28;20074;-88
2022/05/16 11:00:06;;;;;;;10.15;5.15;;;;;;;26.03;53.97;101396.41;5071510;28;20484;-89
2022/05/16 11:02:46;;;;;;;9.23;5.35;;;;;;;26.78;50.12;101393.59;5076053;28;20103;-88
2022/05/16 11:05:46;;;;;;;7.45;4.97;;;;;;;27.19;48.72;101405.75;5060293;28;20036;-88
2022/05/16 11:08:38;;;;;;;7.03;5.07;;;;;;;27.47;48.21;101411.91;5076574;28;20539;-88
2022/05/16 11:11:10;;;;;;;;;;;;;;;27.50;45.16;101414.28;5075571;28;20045;-88
2022/05/16 11:13:59;;;;;;;7.85;5.07;;;;;;;27.29;45.43;101402.94;5078581;28;19966;-88
2022/05/16 11:16:32;;;;;;;8.70;4.75;;;;;;;27.51;44.99;101407.00;5077229;28;20035;-89
2022/05/16 11:19:38;;;;;;;8.65;5.00;;;;;;;27.56;44.95;101407.38;5072169;28;20552;-88
2022/05/16 11:22:24;;;;;;;13.82;5.50;;;;;;;27.62;47.29;101413.03;5075090;28;20147;-89
2022/05/16 11:24:49;;;;;;;11.77;5.47;;;;;;;27.61;44.27;101402.34;5059360;28;20066;-89
2022/05/16 11:27:30;;;;;;;10.70;5.75;;;;;;;27.33;47.24;101407.91;5077325;28;20320;-88
2022/05/16 11:30:05;;;;;;;7.93;5.25;;;;;;;26.99;46.84;101412.28;5063131;28;20027;-88
2022/05/16 11:33:00;;;;;;;12.90;5.88;;;;;;;26.88;47.11;101408.78;5077051;28;20486;-88
2022/05/16 11:35:45;;;;;;;11.35;5.57;;;;;;;26.36;48.65;101418.50;5063598;28;20390;-88
2022/05/16 11:38:28;;;;;;;11.60;5.90;;;;;;;25.91;48.41;101420.09;5063341;28;20155;-88
2022/05/16 11:41:26;;;;;;;8.00;5.70;;;;;;;25.69;48.93;101425.81;5066766;28;20376;-88
2022/05/16 11:44:06;;;;;;;18.48;6.88;;;;;;;25.51;51.18;101424.84;5062731;28;20036;-86
2022/05/16 11:46:52;;;;;;;10.55;6.90;;;;;;;25.32;49.66;101428.44;5064728;28;20044;-87
2022/05/16 11:49:38;;;;;;;10.80;6.60;;;;;;;25.29;52.60;101421.47;5079330;28;20032;-87
2022/05/16 11:52:32;;;;;;;9.63;7.35;;;;;;;25.52;51.72;101426.59;5079057;28;20114;-87
2022/05/16 11:55:04;;;;;;;10.77;6.93;;;;;;;25.54;52.63;101429.97;5062754;28;20112;-87
2022/05/16 12:02:50;;;;;;;9.88;6.63;;;;;;;25.49;50.45;101433.13;5077463;28;20054;-88
2022/05/16 12:05:21;;;;;;;16.25;7.65;;;;;;;25.50;49.91;101434.81;5078829;28;20498;-88
2022/05/16 12:07:56;;;;;;;11.38;7.00;;;;;;;25.54;49.15;101444.38;5065442;28;20700;-88